Time;durP1;ratioP1;P1;durP2;ratioP2;P2;SDS_P1;SDS_P2;PMS_P1;PMS_P2;Temp;Humidity;BMP_temperature;BMP_pressure;BME280_temperature;BME280_humidity;BME280_pressure;Samples;Min_cycle;Max_cycle;Signal;HPM_P1;HPM_P2
2023/02/11 00:01:16;;;;;;;73.43;34.28;;;-2.20;99.90;;;;;;5162352;27;20464;-80
2023/02/11 00:04:05;;;;;;;74.05;34.88;;;-2.30;99.90;;;;;;5168191;27;20414;-81
2023/02/11 00:06:52;;;;;;;78.35;33.63;;;-2.40;99.90;;;;;;5090380;27;20133;-82
2023/02/11 00:09:42;;;;;;;78.05;34.38;;;-2.50;99.90;;;;;;5173749;27;20038;-81
2023/02/11 00:12:30;;;;;;;71.80;32.78;;;-2.70;99.90;;;;;;5159064;27;20113;-82
2023/02/11 00:15:17;;;;;;;70.88;33.22;;;-2.80;99.90;;;;;;5163715;27;20078;-80
2023/02/11 00:18:04;;;;;;;67.32;32.45;;;-2.80;99.90;;;;;;5167929;27;20058;-80
2023/02/11 00:20:54;;;;;;;75.47;35.97;;;-2.70;99.90;;;;;;5105321;27;20057;-81
2023/02/11 00:23:41;;;;;;;82.10;35.65;;;-2.80;99.90;;;;;;5107273;27;20034;-82
2023/02/11 00:26:31;;;;;;;73.90;34.25;;;-2.80;99.90;;;;;;5163905;27;20039;-80
2023/02/11 00:29:19;;;;;;;78.38;33.83;;;-3.00;99.90;;;;;;5155738;27;20038;-80
2023/02/11 00:32:07;;;;;;;78.43;35.78;;;-3.00;99.90;;;;;;5083437;27;20043;-82
2023/02/11 00:34:54;;;;;;;72.60;34.10;;;-3.10;99.90;;;;;;5100318;27;20038;-80
2023/02/11 00:37:42;;;;;;;85.25;37.38;;;-3.20;99.90;;;;;;5173110;27;20139;-80
2023/02/11 00:40:29;;;;;;;76.70;34.63;;;-3.20;99.90;;;;;;5165936;27;20146;-82
2023/02/11 00:43:16;;;;;;;77.70;35.88;;;-3.30;99.90;;;;;;5094012;27;20321;-82
2023/02/11 00:46:05;;;;;;;91.78;42.28;;;-3.30;99.90;;;;;;5101030;27;20050;-82
2023/02/11 00:48:56;;;;;;;88.43;38.25;;;-3.30;1.00;;;;;;5162568;27;20043;-81
2023/02/11 00:51:43;;;;;;;83.57;37.08;;;-3.20;1.00;;;;;;5158215;27;20100;-82
2023/02/11 00:54:30;;;;;;;82.75;39.08;;;-3.10;1.00;;;;;;5099349;27;20065;-82
2023/02/11 00:57:18;;;;;;;81.63;36.63;;;-3.10;1.00;;;;;;5170783;27;20053;-81
2023/02/11 01:00:08;;;;;;;87.90;38.65;;;-3.20;1.00;;;;;;5176500;27;20046;-83
2023/02/11 01:02:57;;;;;;;81.15;37.65;;;-3.30;1.00;;;;;;5177176;27;20045;-81
2023/02/11 01:05:44;;;;;;;83.88;38.17;;;-3.40;1.00;;;;;;5163571;27;20119;-81
2023/02/11 01:08:33;;;;;;;74.07;35.85;;;-3.60;1.00;;;;;;5167484;27;20058;-82
2023/02/11 01:11:21;;;;;;;75.30;35.95;;;-3.70;72.20;;;;;;5107485;27;20046;-80
2023/02/11 01:14:08;;;;;;;81.85;36.25;;;-3.70;99.90;;;;;;5170385;27;20038;-80
2023/02/11 01:16:55;;;;;;;93.38;38.00;;;-3.70;99.90;;;;;;5101062;27;20144;-81
2023/02/11 01:19:42;;;;;;;91.15;36.97;;;-3.60;99.90;;;;;;5096488;27;20054;-81
2023/02/11 01:22:33;;;;;;;89.68;39.20;;;-3.50;1.00;;;;;;5175597;27;20079;-80
2023/02/11 01:25:20;;;;;;;92.18;41.80;;;-3.30;1.00;;;;;;5172139;27;20058;-80
2023/02/11 01:28:19;;;;;;;93.47;39.10;;;-3.30;1.00;;;;;;5171937;27;20345;-81
2023/02/11 01:31:06;;;;;;;87.35;38.78;;;-3.30;1.00;;;;;;5170365;27;20075;-81
2023/02/11 01:33:53;;;;;;;93.70;40.45;;;-3.30;1.00;;;;;;5171179;27;20376;-81
2023/02/11 01:36:43;;;;;;;88.50;40.85;;;-3.40;1.00;;;;;;5166679;27;20046;-81
2023/02/11 01:39:33;;;;;;;86.13;38.58;;;-3.40;1.00;;;;;;5105385;27;20054;-81
2023/02/11 01:42:22;;;;;;;102.50;38.72;;;-3.40;1.00;;;;;;5176007;27;20129;-81
2023/02/11 01:45:54;;;;;;;82.60;37.15;;;-3.40;1.00;;;;;;5176237;27;20042;-80
2023/02/11 01:48:45;;;;;;;81.25;36.90;;;-3.40;1.00;;;;;;5164818;27;20039;-81
2023/02/11 01:51:50;;;;;;;81.10;36.58;;;-3.40;1.00;;;;;;5162182;27;20155;-80
2023/02/11 01:57:55;;;;;;;77.75;35.03;;;-3.40;1.00;;;;;;5169144;27;20070;-80
2023/02/11 02:00:42;;;;;;;77.32;34.63;;;-3.40;1.00;;;;;;5174981;27;20414;-82
2023/02/11 02:03:32;;;;;;;77.40;33.80;;;-3.30;1.00;;;;;;5175295;27;20182;-82
2023/02/11 02:06:31;;;;;;;74.25;33.85;;;-3.30;1.00;;;;;;5164641;27;20100;-81
2023/02/11 02:09:26;;;;;;;77.75;34.22;;;-3.30;1.00;;;;;;5151521;27;20039;-79
2023/02/11 02:12:13;;;;;;;76.13;34.28;;;-3.40;1.00;;;;;;5163527;27;20079;-81
2023/02/11 02:15:26;;;;;;;73.10;33.90;;;-3.40;1.00;;;;;;5163510;27;20127;-83
2023/02/11 02:18:28;;;;;;;75.97;32.60;;;-3.50;1.00;;;;;;5175500;27;20437;-81
2023/02/11 02:21:52;;;;;;;74.47;35.00;;;-3.50;1.00;;;;;;5176043;27;20038;-82
2023/02/11 02:24:48;;;;;;;73.93;33.83;;;-3.50;1.00;;;;;;5103002;27;20069;-82
2023/02/11 02:27:54;;;;;;;72.03;33.05;;;-3.50;1.00;;;;;;5166452;27;20054;-81
2023/02/11 02:31:11;;;;;;;71.85;33.45;;;-3.50;1.00;;;;;;5186412;27;20075;-83
2023/02/11 02:34:05;;;;;;;70.25;32.67;;;-3.40;1.00;;;;;;5179397;27;20042;-82
2023/02/11 02:37:24;;;;;;;77.88;35.63;;;-3.30;1.00;;;;;;5177611;27;20056;-81
2023/02/11 02:40:19;;;;;;;72.93;31.92;;;-3.30;1.00;;;;;;5170014;27;20067;-89
2023/02/11 02:43:09;;;;;;;82.47;35.75;;;-3.20;1.00;;;;;;5122501;27;20042;-90
2023/02/11 02:46:19;;;;;;;73.55;33.58;;;-3.10;1.00;;;;;;5110125;27;20045;-88
2023/02/11 02:49:12;;;;;;;74.25;33.95;;;-3.10;1.00;;;;;;5166767;27;20064;-89
2023/02/11 02:52:33;;;;;;;71.40;32.35;;;-3.10;1.00;;;;;;5105060;27;20041;-89
2023/02/11 02:55:36;;;;;;;72.15;31.77;;;-3.00;99.90;;;;;;5177213;27;20042;-89
2023/02/11 02:58:41;;;;;;;69.88;33.78;;;-3.00;99.90;;;;;;5106327;27;20133;-90
2023/02/11 03:02:03;;;;;;;73.93;33.08;;;-3.00;99.90;;;;;;5166590;27;20156;-90
2023/02/11 03:05:25;;;;;;;67.10;31.98;;;-2.90;99.90;;;;;;5103902;27;20143;-89
2023/02/11 03:08:19;;;;;;;67.90;31.17;;;-2.90;99.90;;;;;;5108716;27;20038;-88
2023/02/11 03:11:15;;;;;;;65.18;31.50;;;-2.90;99.90;;;;;;5179151;27;20101;-89
2023/02/11 03:14:05;;;;;;;68.43;31.88;;;-3.00;99.90;;;;;;5108934;27;20142;-89
2023/02/11 03:16:58;;;;;;;67.70;31.95;;;-3.10;99.90;;;;;;5107762;27;20361;-90
2023/02/11 03:19:51;;;;;;;74.55;33.33;;;-3.20;99.90;;;;;;5101252;27;20056;-90
2023/02/11 03:22:56;;;;;;;71.88;31.90;;;-3.20;99.90;;;;;;5162393;27;20038;-90
2023/02/11 03:25:57;;;;;;;75.22;36.60;;;-3.00;99.90;;;;;;5182582;27;20345;-89
2023/02/11 03:29:11;;;;;;;76.60;36.10;;;-2.90;99.90;;;;;;5177172;27;20094;-89
2023/02/11 03:32:38;;;;;;;72.43;32.88;;;-2.90;99.90;;;;;;5117662;27;20169;-90
2023/02/11 03:35:38;;;;;;;71.25;32.13;;;-2.90;99.90;;;;;;5172561;27;20038;-89
2023/02/11 03:38:43;;;;;;;67.80;30.55;;;-2.90;99.90;;;;;;5095572;27;20049;-90
2023/02/11 03:41:36;;;;;;;71.90;32.70;;;-3.00;99.90;;;;;;5172619;27;20039;-90
2023/02/11 03:44:29;;;;;;;66.22;31.30;;;-3.00;99.90;;;;;;5176095;27;20066;-90
2023/02/11 03:47:21;;;;;;;76.22;32.17;;;-3.00;99.90;;;;;;5095365;27;20035;-89
2023/02/11 03:50:13;;;;;;;73.55;33.67;;;-3.00;99.90;;;;;;5173912;27;20166;-89
2023/02/11 03:53:01;;;;;;;71.25;32.38;;;-2.90;99.90;;;;;;5086277;27;20122;-89
2023/02/11 03:55:53;;;;;;;63.70;31.52;;;-3.00;99.90;;;;;;5168947;27;20090;-89
2023/02/11 03:58:40;;;;;;;69.95;32.30;;;-2.90;99.90;;;;;;5183608;27;20078;-87
2023/02/11 04:01:29;;;;;;;59.58;29.35;;;-2.70;99.90;;;;;;5182969;27;20106;-89
2023/02/11 04:04:20;;;;;;;65.45;31.80;;;-2.70;99.90;;;;;;5092671;27;20189;-89
2023/02/11 04:07:10;;;;;;;71.00;31.25;;;-2.70;99.90;;;;;;5103502;27;20042;-89
2023/02/11 04:10:00;;;;;;;61.38;30.48;;;-2.70;99.90;;;;;;5107133;27;20125;-91
2023/02/11 04:12:48;;;;;;;71.18;31.33;;;-2.70;99.90;;;;;;5178352;27;20049;-89
2023/02/11 04:15:35;;;;;;;63.05;31.00;;;-2.80;99.90;;;;;;5095617;27;20129;-92
2023/02/11 04:18:23;;;;;;;68.20;31.40;;;-2.90;99.90;;;;;;5165681;27;20119;-89
2023/02/11 04:21:13;;;;;;;67.03;31.88;;;-2.90;99.90;;;;;;5177710;27;20056;-88
2023/02/11 04:24:01;;;;;;;65.97;32.47;;;-2.90;99.90;;;;;;5077499;27;20460;-90
2023/02/11 04:26:50;;;;;;;67.90;31.92;;;-3.00;99.90;;;;;;5158661;27;20059;-89
2023/02/11 04:29:37;;;;;;;79.88;33.70;;;-3.00;99.90;;;;;;5125811;27;20049;-89
2023/02/11 04:32:24;;;;;;;78.30;31.63;;;-3.00;99.90;;;;;;5161276;27;20050;-90
2023/02/11 04:35:12;;;;;;;66.72;32.20;;;-3.00;99.90;;;;;;5098294;27;20187;-89
2023/02/11 04:37:59;;;;;;;67.05;32.30;;;-2.90;99.90;;;;;;5171964;27;20046;-90
2023/02/11 04:40:46;;;;;;;66.97;31.83;;;-2.70;99.90;;;;;;5157620;27;20050;-89
2023/02/11 04:43:34;;;;;;;69.53;33.58;;;-2.50;99.90;;;;;;5098201;27;20138;-90
2023/02/11 04:46:21;;;;;;;68.88;33.70;;;-2.40;99.90;;;;;;5106216;27;20038;-89
2023/02/11 04:49:12;;;;;;;62.22;30.70;;;-2.30;99.90;;;;;;5180155;27;20117;-89
2023/02/11 04:52:03;;;;;;;64.68;31.30;;;-2.30;99.90;;;;;;5179858;27;20046;-87
2023/02/11 04:54:51;;;;;;;67.82;32.60;;;-2.30;99.90;;;;;;5187473;27;20046;-89
2023/02/11 04:57:38;;;;;;;66.35;32.05;;;-2.20;93.00;;;;;;5183981;27;20042;-90
2023/02/11 05:00:28;;;;;;;64.95;33.20;;;-2.30;35.60;;;;;;5115485;27;20047;-90
2023/02/11 05:03:18;;;;;;;62.47;30.42;;;-2.30;10.00;;;;;;5155535;27;20082;-89
2023/02/11 05:06:16;;;;;;;62.35;31.02;;;-2.30;1.00;;;;;;5201006;27;20042;-87
2023/02/11 05:09:04;;;;;;;64.72;31.48;;;-2.20;1.00;;;;;;5123557;27;20030;-86
2023/02/11 05:11:52;;;;;;;64.50;30.90;;;-2.10;1.00;;;;;;5183833;27;20057;-84
2023/02/11 05:14:40;;;;;;;67.57;31.83;;;-2.00;1.00;;;;;;5198422;27;20046;-86
2023/02/11 05:17:27;;;;;;;63.65;30.30;;;-1.90;1.00;;;;;;5181689;27;20084;-88
2023/02/11 05:20:15;;;;;;;63.47;31.85;;;-1.80;1.00;;;;;;5198029;27;20022;-87
2023/02/11 05:23:03;;;;;;;60.78;30.65;;;-1.70;1.00;;;;;;5199206;27;20042;-88
2023/02/11 05:25:50;;;;;;;64.30;31.48;;;-1.60;1.00;;;;;;5129111;27;20090;-88
2023/02/11 05:28:39;;;;;;;62.55;29.40;;;-1.50;1.00;;;;;;5094932;27;20113;-88
2023/02/11 05:31:28;;;;;;;57.28;30.17;;;-1.40;1.00;;;;;;5118212;27;20046;-90
2023/02/11 05:34:16;;;;;;;61.55;30.33;;;-1.30;1.00;;;;;;5118171;27;20042;-88
2023/02/11 05:37:14;;;;;;;63.72;30.23;;;-1.20;99.90;;;;;;5104183;27;20042;-90
2023/02/11 05:40:09;;;;;;;74.78;34.25;;;-1.30;99.90;;;;;;5116956;27;20053;-89
2023/02/11 05:42:56;;;;;;;67.07;32.10;;;-1.30;99.90;;;;;;5118062;27;20062;-90
2023/02/11 05:45:43;;;;;;;66.20;33.78;;;-1.30;99.90;;;;;;5183431;27;20046;-89
2023/02/11 05:48:31;;;;;;;58.10;30.58;;;-1.30;99.90;;;;;;5107165;27;20050;-87
2023/02/11 05:51:18;;;;;;;60.33;28.90;;;-1.20;99.90;;;;;;5094529;27;20047;-89
2023/02/11 05:54:05;;;;;;;52.58;26.52;;;-1.10;99.90;;;;;;5178728;27;20134;-90
2023/02/11 05:56:57;;;;;;;46.20;24.50;;;-1.00;99.90;;;;;;5178053;27;20102;-89
2023/02/11 05:59:45;;;;;;;49.90;25.08;;;-0.90;99.90;;;;;;5188644;27;20038;-90
2023/02/11 06:02:32;;;;;;;59.97;25.40;;;-0.80;99.90;;;;;;5120737;27;20041;-84
2023/02/11 06:14:00;;;;;;;49.88;26.10;;;-0.70;99.90;;;;;;5027360;28;20039;-86
2023/02/11 06:17:25;;;;;;;55.42;27.65;;;-0.80;99.90;;;;;;5009857;28;20062;-86
2023/02/11 06:36:49;;;;;;;56.33;28.65;;;-0.70;99.90;;;;;;5085473;27;20479;-87
2023/02/11 06:40:27;;;;;;;57.45;28.90;;;-0.70;99.90;;;;;;5160068;27;20475;-88
2023/02/11 06:43:33;;;;;;;51.25;27.27;;;-0.70;99.90;;;;;;5105555;27;20038;-86
2023/02/11 06:51:19;;;;;;;53.70;27.48;;;-0.80;99.90;;;;;;5180355;27;20026;-87
2023/02/11 07:06:43;;;;;;;66.13;30.88;;;-0.90;99.90;;;;;;5089133;28;20072;-84
2023/02/11 07:10:15;;;;;;;66.68;31.90;;;-0.90;99.90;;;;;;5066234;28;20088;-86
2023/02/11 07:18:33;;;;;;;59.35;30.95;;;-0.80;99.90;;;;;;5480763;22;20280;-85
2023/02/11 07:21:21;;;;;;;60.97;30.73;;;-0.70;99.90;;;;;;5094043;28;20477;-83
2023/02/11 07:24:09;;;;;;;61.42;31.08;;;-0.60;99.90;;;;;;5083143;28;20080;-82
2023/02/11 07:26:57;;;;;;;58.75;29.75;;;-0.60;99.90;;;;;;5083276;28;20098;-84
2023/02/11 07:29:45;;;;;;;60.60;29.00;;;-0.50;99.90;;;;;;5091703;28;20036;-85
2023/02/11 07:32:33;;;;;;;63.08;32.30;;;-0.40;99.90;;;;;;5092607;28;20039;-84
2023/02/11 07:35:20;;;;;;;62.10;31.00;;;-0.40;99.90;;;;;;5083902;28;20048;-84
2023/02/11 07:38:13;;;;;;;61.72;31.55;;;-0.40;99.90;;;;;;5071034;28;20358;-84
2023/02/11 07:41:05;;;;;;;60.47;31.45;;;-0.50;99.90;;;;;;5082723;28;20347;-84
2023/02/11 07:43:52;;;;;;;62.90;31.02;;;-0.50;99.90;;;;;;5085683;28;20127;-84
2023/02/11 07:46:43;;;;;;;69.97;34.30;;;-0.50;99.90;;;;;;5073296;28;20060;-85
2023/02/11 07:49:32;;;;;;;68.60;34.47;;;-0.40;99.90;;;;;;5087173;28;20116;-85
2023/02/11 07:52:22;;;;;;;70.30;31.95;;;-0.20;99.90;;;;;;5080223;28;20355;-84
2023/02/11 07:55:10;;;;;;;64.90;32.35;;;0.00;99.90;;;;;;5071861;28;20366;-84
2023/02/11 07:58:06;;;;;;;58.88;30.52;;;0.20;99.90;;;;;;5066074;28;20052;-84
2023/02/11 08:00:53;;;;;;;61.63;31.33;;;0.40;99.90;;;;;;5070363;28;20071;-83
2023/02/11 08:03:41;;;;;;;64.95;33.35;;;0.40;99.90;;;;;;5085992;28;20059;-83
2023/02/11 08:06:34;;;;;;;68.75;34.65;;;0.30;99.90;;;;;;5081421;28;20044;-82
2023/02/11 08:09:21;;;;;;;55.70;31.02;;;0.30;99.90;;;;;;5087969;28;20040;-83
2023/02/11 08:12:08;;;;;;;57.80;29.85;;;0.40;99.90;;;;;;5093092;28;20059;-82
2023/02/11 08:14:56;;;;;;;56.88;28.63;;;0.50;99.90;;;;;;5095153;28;20044;-81
2023/02/11 08:17:46;;;;;;;50.25;24.83;;;0.60;99.90;;;;;;5090085;28;20375;-82
2023/02/11 08:20:33;;;;;;;50.90;27.08;;;0.80;78.90;;;;;;5087113;28;20063;-81
2023/02/11 08:23:21;;;;;;;46.72;24.42;;;0.80;36.40;;;;;;5105401;27;20354;-80
2023/02/11 08:26:14;;;;;;;48.97;25.90;;;0.80;10.60;;;;;;5108500;28;20101;-83
2023/02/11 08:29:12;;;;;;;40.83;22.33;;;0.90;1.00;;;;;;5090156;28;20044;-82
2023/02/11 08:32:02;;;;;;;42.20;22.83;;;1.00;1.00;;;;;;5109927;28;20054;-82
2023/02/11 08:34:51;;;;;;;42.35;23.95;;;1.20;1.00;;;;;;5102042;28;20055;-81
2023/02/11 08:37:39;;;;;;;41.97;23.40;;;1.30;1.00;;;;;;5091796;28;20056;-82
2023/02/11 08:40:29;;;;;;;44.33;23.38;;;1.40;1.00;;;;;;5107902;28;20047;-81
2023/02/11 08:43:16;;;;;;;47.33;24.45;;;1.60;1.00;;;;;;5101460;28;20063;-81
2023/02/11 08:46:04;;;;;;;42.67;23.55;;;1.80;1.00;;;;;;5109057;28;20054;-82
2023/02/11 08:48:52;;;;;;;47.33;25.27;;;1.90;1.00;;;;;;5103725;28;20040;-82
2023/02/11 08:51:39;;;;;;;39.20;23.50;;;2.00;1.00;;;;;;5115971;28;20082;-81
2023/02/11 08:54:27;;;;;;;41.22;23.10;;;2.10;1.00;;;;;;5110792;28;20048;-81
2023/02/11 08:57:16;;;;;;;41.58;23.15;;;2.20;1.00;;;;;;5116816;28;20090;-84
2023/02/11 09:00:04;;;;;;;39.65;22.20;;;2.30;1.00;;;;;;5113381;28;20040;-83
2023/02/11 09:02:56;;;;;;;44.67;24.55;;;2.40;99.90;;;;;;5094090;28;20040;-82
2023/02/11 09:05:46;;;;;;;45.53;26.05;;;2.70;99.90;;;;;;5112504;28;20404;-84
2023/02/11 09:08:34;;;;;;;47.47;24.23;;;3.10;99.90;;;;;;5087763;28;20472;-82
2023/02/11 09:11:27;;;;;;;37.88;21.98;;;3.50;99.90;;;;;;5115492;28;20067;-82
2023/02/11 09:14:20;;;;;;;40.95;23.40;;;3.60;99.90;;;;;;5108046;28;20438;-82
2023/02/11 09:17:07;;;;;;;41.67;22.30;;;3.40;99.90;;;;;;5109696;28;20043;-82
2023/02/11 09:19:57;;;;;;;41.92;20.95;;;3.50;99.90;;;;;;5104731;28;20048;-83
2023/02/11 09:22:45;;;;;;;38.13;22.45;;;4.00;99.90;;;;;;5102078;28;20133;-83
2023/02/11 09:25:33;;;;;;;42.72;22.33;;;4.60;99.90;;;;;;5095119;28;20139;-83
2023/02/11 09:28:20;;;;;;;34.83;19.63;;;5.00;99.90;;;;;;5111224;28;20047;-83
2023/02/11 09:31:10;;;;;;;32.97;19.08;;;5.80;99.90;;;;;;5107360;28;20040;-84
2023/02/11 09:34:00;;;;;;;37.15;18.00;;;6.60;99.90;;;;;;5113727;28;20160;-81
2023/02/11 09:36:48;;;;;;;31.45;17.80;;;6.80;99.90;;;;;;5108802;28;20364;-81
2023/02/11 09:39:35;;;;;;;27.40;16.92;;;6.80;99.90;;;;;;5104241;28;20074;-81
2023/02/11 09:42:52;;;;;;;30.80;18.58;;;6.90;99.90;;;;;;5106679;28;20040;-81
2023/02/11 09:45:40;;;;;;;34.63;19.50;;;6.50;99.90;;;;;;5088937;28;20130;-83
2023/02/11 09:48:38;;;;;;;35.95;19.17;;;6.60;99.90;;;;;;5099087;28;20039;-82
2023/02/11 09:51:37;;;;;;;33.63;19.10;;;7.10;99.90;;;;;;5094871;28;20072;-82
2023/02/11 09:54:36;;;;;;;32.95;19.58;;;7.10;99.90;;;;;;5116260;27;20148;-82
2023/02/11 09:57:32;;;;;;;32.47;17.65;;;7.50;99.90;;;;;;5103931;27;20101;-83
2023/02/11 10:00:21;;;;;;;28.15;16.13;;;8.20;99.90;;;;;;5112447;28;20100;-82
2023/02/11 10:03:33;;;;;;;23.63;15.70;;;8.80;99.90;;;;;;5096302;28;20062;-83
2023/02/11 10:06:59;;;;;;;20.08;13.20;;;9.40;99.90;;;;;;5108065;28;20081;-83
2023/02/11 10:10:26;;;;;;;20.88;13.32;;;10.40;99.90;;;;;;5026649;28;20471;-82
2023/02/11 10:13:47;;;;;;;21.27;13.75;;;10.40;89.30;;;;;;5109633;28;20069;-84
2023/02/11 10:16:58;;;;;;;22.05;13.20;;;10.70;76.70;;;;;;5106384;28;20044;-83
2023/02/11 10:20:13;;;;;;;17.50;12.75;;;11.00;67.10;;;;;;5091891;28;20059;-83
2023/02/11 10:23:12;;;;;;;23.30;13.30;;;10.60;55.40;;;;;;5113287;28;20044;-84
2023/02/11 10:26:00;;;;;;;23.58;14.38;;;9.30;47.70;;;;;;5112681;28;20058;-83
2023/02/11 10:28:52;;;;;;;24.23;14.63;;;9.60;50.70;;;;;;5093251;28;20058;-82
2023/02/11 10:31:45;;;;;;;;;;;10.80;49.60;;;;;;5101010;28;20097;-81
2023/02/11 10:34:32;;;;;;;22.73;14.35;;;11.40;44.30;;;;;;5095980;28;19926;-82
2023/02/11 10:37:24;;;;;;;26.52;15.15;;;11.80;37.50;;;;;;5084384;28;20052;-83
2023/02/11 10:40:17;;;;;;;20.67;13.48;;;11.80;32.70;;;;;;5085843;28;20048;-82
2023/02/11 10:43:13;;;;;;;;;;;11.90;29.00;;;;;;5109556;28;20059;-82
2023/02/11 10:46:03;;;;;;;20.90;13.90;;;12.20;26.40;;;;;;5097799;28;19955;-83
2023/02/11 10:48:52;;;;;;;23.65;13.90;;;12.00;21.60;;;;;;5101566;28;20054;-82
2023/02/11 10:51:43;;;;;;;22.38;12.75;;;12.00;20.20;;;;;;5111849;28;20085;-84
2023/02/11 10:54:30;;;;;;;17.55;11.68;;;12.00;18.10;;;;;;5103809;28;20046;-85
2023/02/11 10:57:19;;;;;;;18.85;11.88;;;12.60;15.60;;;;;;5113410;28;20108;-84
2023/02/11 11:00:27;;;;;;;20.65;12.77;;;12.10;12.50;;;;;;5089712;28;20051;-82
2023/02/11 11:03:20;;;;;;;19.92;11.48;;;13.10;14.10;;;;;;5110185;28;20055;-84
2023/02/11 11:06:11;;;;;;;19.38;13.18;;;13.50;11.00;;;;;;5108252;28;20039;-83
2023/02/11 11:09:00;;;;;;;24.80;13.88;;;14.00;9.00;;;;;;5109592;28;20546;-84
2023/02/11 11:11:52;;;;;;;17.13;11.77;;;14.00;7.10;;;;;;5110514;28;20051;-84
2023/02/11 11:14:39;;;;;;;16.10;10.57;;;15.50;8.60;;;;;;5114620;28;20048;-84
2023/02/11 11:17:28;;;;;;;15.98;10.98;;;16.20;3.10;;;;;;5111889;28;20097;-85
2023/02/11 11:20:21;;;;;;;16.65;10.20;;;16.00;1.00;;;;;;5096490;28;20051;-85
2023/02/11 11:23:23;;;;;;;13.82;9.60;;;16.80;1.00;;;;;;5093468;28;20035;-84
2023/02/11 11:26:15;;;;;;;15.40;10.70;;;16.70;1.00;;;;;;5099862;28;20063;-83
2023/02/11 11:29:12;;;;;;;13.75;9.45;;;15.80;1.00;;;;;;5104177;28;20070;-83
2023/02/11 11:32:04;;;;;;;17.52;10.70;;;16.00;1.00;;;;;;5099461;28;20048;-83
2023/02/11 11:34:54;;;;;;;15.77;9.43;;;16.80;1.00;;;;;;5099753;28;20535;-83
2023/02/11 11:37:44;;;;;;;20.40;11.77;;;16.00;1.00;;;;;;5110874;28;20108;-83
2023/02/11 11:40:34;;;;;;;12.88;9.23;;;15.60;1.00;;;;;;5099441;28;20051;-84
2023/02/11 11:43:22;;;;;;;15.20;8.73;;;14.70;1.00;;;;;;5094546;28;20039;-83
2023/02/11 11:46:11;;;;;;;15.05;9.18;;;14.30;1.00;;;;;;5098927;28;20075;-84
2023/02/11 11:49:21;;;;;;;14.75;7.82;;;15.70;1.00;;;;;;5102342;28;20032;-84
2023/02/11 11:52:17;;;;;;;9.40;7.45;;;16.20;1.00;;;;;;5112960;28;20040;-84
2023/02/11 11:55:17;;;;;;;7.97;5.85;;;16.70;1.00;;;;;;5107218;28;20085;-84
2023/02/11 11:58:16;;;;;;;13.75;8.00;;;16.40;1.00;;;;;;5106128;28;20359;-83
2023/02/11 12:01:12;;;;;;;11.68;8.35;;;17.10;1.00;;;;;;5103230;28;20044;-83
2023/02/11 12:04:03;;;;;;;10.60;7.60;;;16.80;1.00;;;;;;5102857;28;20086;-82
2023/02/11 12:07:09;;;;;;;13.32;8.15;;;17.20;1.00;;;;;;5101316;28;20454;-83
2023/02/11 12:10:21;;;;;;;15.35;7.45;;;16.40;1.00;;;;;;5093443;28;20043;-80
2023/02/11 12:13:20;;;;;;;12.95;7.18;;;16.10;1.00;;;;;;5103467;28;20040;-83
2023/02/11 12:16:19;;;;;;;12.95;8.27;;;15.70;1.00;;;;;;5113898;28;20044;-83
2023/02/11 12:19:20;;;;;;;13.93;7.78;;;14.50;1.00;;;;;;5101446;28;20100;-82
2023/02/11 12:22:40;;;;;;;13.45;7.97;;;14.40;1.00;;;;;;5094769;28;20096;-84
2023/02/11 12:25:34;;;;;;;16.80;7.10;;;15.70;1.00;;;;;;5107334;28;20122;-82
2023/02/11 12:28:54;;;;;;;11.00;7.28;;;16.80;1.00;;;;;;5090145;28;20051;-83
2023/02/11 12:31:47;;;;;;;9.77;7.40;;;17.90;1.00;;;;;;5096499;28;20043;-83
2023/02/11 12:34:41;;;;;;;12.27;7.78;;;19.50;1.00;;;;;;5107075;28;20507;-82
2023/02/11 12:37:41;;;;;;;8.13;6.55;;;19.70;1.00;;;;;;5107829;28;20501;-84
2023/02/11 12:40:52;;;;;;;9.88;6.80;;;18.40;1.00;;;;;;5109797;28;20082;-85
2023/02/11 12:43:50;;;;;;;11.15;7.03;;;17.80;1.00;;;;;;5112303;28;20455;-86
2023/02/11 12:46:46;;;;;;;10.40;7.05;;;18.10;1.00;;;;;;5105631;28;20043;-84
2023/02/11 12:50:05;;;;;;;13.15;7.65;;;18.50;1.00;;;;;;5095413;28;20659;-83
2023/02/11 12:53:17;;;;;;;13.00;7.43;;;19.10;1.00;;;;;;5098372;28;20075;-84
2023/02/11 12:56:14;;;;;;;10.52;6.57;;;18.60;1.00;;;;;;5099443;28;20058;-84
2023/02/11 12:59:10;;;;;;;8.80;6.18;;;19.30;1.00;;;;;;5097800;28;20048;-84
2023/02/11 13:02:14;;;;;;;12.23;5.70;;;20.00;1.00;;;;;;5096559;28;20039;-81
2023/02/11 13:05:15;;;;;;;6.97;5.15;;;21.20;1.00;;;;;;5097384;28;20055;-80
2023/02/11 13:08:11;;;;;;;10.65;5.72;;;21.20;1.00;;;;;;5095185;28;20059;-83
2023/02/11 13:11:06;;;;;;;9.00;5.53;;;19.90;1.00;;;;;;5111054;28;20040;-82
2023/02/11 13:14:04;;;;;;;10.10;5.53;;;20.30;1.00;;;;;;5108714;28;20051;-82
2023/02/11 13:16:57;;;;;;;9.25;5.45;;;20.80;1.00;;;;;;5114797;28;20078;-81
2023/02/11 13:19:52;;;;;;;12.05;6.18;;;19.50;1.00;;;;;;5111609;28;20142;-84
2023/02/11 13:22:56;;;;;;;8.30;5.55;;;19.10;1.00;;;;;;5112488;28;20044;-82
2023/02/11 13:25:50;;;;;;;7.35;4.85;;;20.40;1.00;;;;;;5114043;28;20043;-81
2023/02/11 13:28:55;;;;;;;6.63;5.00;;;20.40;1.00;;;;;;5111950;28;20044;-81
2023/02/11 13:31:45;;;;;;;7.68;5.30;;;20.40;1.00;;;;;;5106428;28;20426;-80
2023/02/11 13:34:42;;;;;;;8.93;4.90;;;21.10;1.00;;;;;;5112280;28;20047;-81
2023/02/11 13:37:37;;;;;;;7.68;5.53;;;22.00;1.00;;;;;;5105335;28;20055;-83
2023/02/11 13:40:30;;;;;;;7.05;5.07;;;21.00;1.00;;;;;;5110297;27;20065;-81
2023/02/11 13:43:27;;;;;;;10.27;5.97;;;21.60;1.00;;;;;;5112940;28;20040;-81
2023/02/11 13:46:15;;;;;;;7.30;5.93;;;21.80;1.00;;;;;;5110681;28;20058;-81
2023/02/11 13:49:03;;;;;;;7.32;5.05;;;21.50;1.00;;;;;;5089278;27;20046;-81
2023/02/11 13:51:51;;;;;;;6.15;5.10;;;22.00;1.00;;;;;;5093557;28;20051;-82
2023/02/11 13:54:39;;;;;;;7.53;5.68;;;22.30;1.00;;;;;;5095209;28;20044;-82
2023/02/11 13:57:29;;;;;;;7.15;5.70;;;22.40;1.00;;;;;;5104241;28;20476;-84
2023/02/11 14:00:37;;;;;;;7.45;5.05;;;22.80;1.00;;;;;;5106968;28;20047;-82
2023/02/11 14:10:40;;;;;;;6.07;4.55;;;23.70;1.00;;;;;;5086548;28;20061;-82
2023/02/11 14:13:54;;;;;;;6.53;5.32;;;22.40;1.00;;;;;;5115290;28;20039;-82
2023/02/11 14:17:06;;;;;;;7.90;5.22;;;21.70;1.00;;;;;;5110486;28;20040;-82
2023/02/11 14:19:56;;;;;;;6.17;5.00;;;20.80;1.00;;;;;;5107394;28;20176;-81
2023/02/11 14:22:51;;;;;;;8.95;6.18;;;20.10;1.00;;;;;;5110436;28;20281;-82
2023/02/11 14:25:41;;;;;;;8.00;5.57;;;19.90;1.00;;;;;;5114400;28;20515;-82
2023/02/11 14:28:33;;;;;;;12.48;5.97;;;19.00;1.00;;;;;;5108941;28;20381;-82
2023/02/11 14:31:25;;;;;;;11.25;6.15;;;19.70;1.00;;;;;;5104929;28;20044;-80
2023/02/11 14:34:16;;;;;;;9.93;6.18;;;20.10;1.00;;;;;;5101333;28;20181;-82
2023/02/11 14:37:05;;;;;;;8.88;5.47;;;19.90;1.00;;;;;;5116030;28;20048;-82
2023/02/11 14:40:02;;;;;;;8.38;5.80;;;19.40;1.00;;;;;;5100494;28;20043;-81
2023/02/11 14:42:52;;;;;;;8.95;6.53;;;18.90;1.00;;;;;;5097760;28;20059;-83
2023/02/11 14:45:43;;;;;;;10.18;6.72;;;18.30;1.00;;;;;;5105589;28;20126;-83
2023/02/11 14:48:35;;;;;;;9.80;6.65;;;18.70;1.00;;;;;;5108312;28;20040;-82
2023/02/11 14:51:39;;;;;;;10.82;7.60;;;18.00;1.00;;;;;;5083054;28;20078;-82
2023/02/11 14:54:27;;;;;;;12.50;8.02;;;18.40;1.00;;;;;;5107658;28;20054;-81
2023/02/11 14:57:22;;;;;;;12.35;8.32;;;18.20;1.00;;;;;;5109985;28;20152;-82
2023/02/11 15:00:24;;;;;;;11.40;7.90;;;18.30;1.00;;;;;;5099497;28;20081;-82
2023/02/11 15:03:23;;;;;;;14.05;8.90;;;18.50;1.00;;;;;;5095971;28;20054;-82
2023/02/11 15:06:30;;;;;;;16.60;9.85;;;18.00;1.00;;;;;;5108667;27;20524;-82
2023/02/11 15:09:22;;;;;;;14.65;10.23;;;16.80;1.00;;;;;;5098006;28;20051;-82
2023/02/11 15:12:28;;;;;;;16.55;9.25;;;16.90;1.00;;;;;;5098559;28;20385;-83
2023/02/11 15:15:15;;;;;;;15.73;9.57;;;16.90;1.00;;;;;;5111433;28;20166;-83
2023/02/11 15:18:04;;;;;;;17.52;9.70;;;16.90;1.00;;;;;;5109808;28;20115;-82
2023/02/11 15:20:51;;;;;;;15.10;9.95;;;16.60;1.00;;;;;;5099134;28;20040;-82
2023/02/11 15:23:41;;;;;;;18.92;11.50;;;16.20;1.00;;;;;;5095953;28;20376;-83
2023/02/11 15:26:32;;;;;;;17.65;10.82;;;15.40;1.00;;;;;;5106181;28;20362;-83
2023/02/11 15:29:19;;;;;;;17.13;10.77;;;15.60;1.00;;;;;;5093212;28;20044;-80
2023/02/11 15:32:14;;;;;;;17.48;11.23;;;15.80;1.00;;;;;;5109767;28;20044;-80
2023/02/11 15:35:07;;;;;;;19.10;10.88;;;15.30;1.00;;;;;;5098093;28;20040;-81
2023/02/11 15:38:00;;;;;;;16.45;10.63;;;14.80;1.00;;;;;;5135994;28;20035;-81
2023/02/11 15:41:01;;;;;;;16.17;10.13;;;14.60;1.00;;;;;;5131769;28;20127;-79
2023/02/11 15:43:57;;;;;;;17.83;10.10;;;14.80;1.00;;;;;;5109151;28;20052;-82
2023/02/11 15:46:46;;;;;;;17.80;10.07;;;14.90;1.00;;;;;;5115967;28;20444;-81
2023/02/11 15:49:33;;;;;;;16.52;10.45;;;14.30;1.00;;;;;;5116100;28;20373;-81
2023/02/11 15:52:24;;;;;;;15.55;10.85;;;13.80;1.00;;;;;;5095793;28;20051;-81
2023/02/11 15:55:17;;;;;;;20.30;10.77;;;12.70;1.00;;;;;;5096384;28;20192;-79